Time;durP1;ratioP1;P1;durP2;ratioP2;P2;SDS_P1;SDS_P2;PMS_P1;PMS_P2;Temp;Humidity;BMP_temperature;BMP_pressure;BME280_temperature;BME280_humidity;BME280_pressure;Samples;Min_cycle;Max_cycle;Signal;HPM_P1;HPM_P2
2021/11/26 00:01:28;;;;;;;11.45;4.72;;;;;;;;;;5032877;28;20551;-76
2021/11/26 00:03:56;;;;;;;7.93;5.13;;;;;;;;;;5032522;28;20485;-75
2021/11/26 00:06:26;;;;;;;8.15;5.22;;;;;;;;;;5032374;28;20120;-75
2021/11/26 00:08:54;;;;;;;7.05;4.97;;;;;;;;;;5032841;28;20045;-73
2021/11/26 00:11:22;;;;;;;6.78;5.30;;;;;;;;;;5029165;28;20435;-73
2021/11/26 00:14:00;;;;;;;6.40;5.10;;;;;;;;;;5029153;28;20042;-73
2021/11/26 00:16:35;;;;;;;7.13;4.90;;;;;;;;;;5013397;28;20124;-74
2021/11/26 00:19:05;;;;;;;5.70;5.03;;;;;;;;;;5032507;28;20404;-73
2021/11/26 00:21:37;;;;;;;8.63;4.70;;;;;;;;;;5015026;28;20128;-71
2021/11/26 00:24:06;;;;;;;9.02;5.32;;;;;;;;;;5034159;28;20057;-71
2021/11/26 00:26:36;;;;;;;6.45;4.85;;;;;;;;;;5036449;28;20511;-73
2021/11/26 00:29:04;;;;;;;8.07;4.57;;;;;;;;;;5036449;28;20041;-71
2021/11/26 00:31:31;;;;;;;5.63;4.68;;;;;;;;;;5036034;28;20053;-71
2021/11/26 00:33:59;;;;;;;7.20;4.75;;;;;;;;;;5035609;28;20044;-73
2021/11/26 00:36:28;;;;;;;9.40;4.63;;;;;;;;;;5036074;28;20407;-73
2021/11/26 00:38:56;;;;;;;6.90;5.10;;;;;;;;;;5036049;28;20041;-71
2021/11/26 00:41:24;;;;;;;8.02;4.82;;;;;;;;;;5035954;28;20048;-71
2021/11/26 00:43:51;;;;;;;7.75;4.65;;;;;;;;;;5035909;28;20403;-73
2021/11/26 00:46:19;;;;;;;5.47;4.32;;;;;;;;;;5018542;28;20041;-73
2021/11/26 00:48:50;;;;;;;7.47;4.75;;;;;;;;;;5035464;28;20049;-74
2021/11/26 00:51:19;;;;;;;7.93;4.97;;;;;;;;;;5018775;28;20071;-74
2021/11/26 00:53:48;;;;;;;6.30;4.72;;;;;;;;;;5018134;28;20099;-74
2021/11/26 00:56:15;;;;;;;8.68;4.38;;;;;;;;;;5035707;28;20045;-73
2021/11/26 00:58:44;;;;;;;9.07;4.90;;;;;;;;;;5035378;28;20044;-73
2021/11/26 01:01:12;;;;;;;6.43;4.43;;;;;;;;;;5035865;28;20404;-74
2021/11/26 01:03:40;;;;;;;5.80;4.55;;;;;;;;;;5017889;28;20108;-74
2021/11/26 01:06:07;;;;;;;5.35;4.68;;;;;;;;;;5035396;28;20037;-74
2021/11/26 01:08:36;;;;;;;6.88;4.20;;;;;;;;;;5035689;28;20049;-73
2021/11/26 01:11:04;;;;;;;5.90;4.15;;;;;;;;;;5035357;28;20045;-73
2021/11/26 01:13:31;;;;;;;6.15;4.20;;;;;;;;;;5035134;28;20038;-71
2021/11/26 01:16:00;;;;;;;5.50;4.22;;;;;;;;;;5035256;28;20052;-74
2021/11/26 01:18:27;;;;;;;5.47;3.83;;;;;;;;;;5034758;28;20084;-74
2021/11/26 01:20:56;;;;;;;4.47;4.03;;;;;;;;;;5017605;28;20042;-74
2021/11/26 01:23:25;;;;;;;6.78;4.55;;;;;;;;;;5035415;28;20034;-73
2021/11/26 01:25:53;;;;;;;6.55;4.68;;;;;;;;;;5035644;28;20044;-74
2021/11/26 01:28:21;;;;;;;6.75;4.20;;;;;;;;;;5035601;28;20055;-73
2021/11/26 01:30:49;;;;;;;8.73;4.00;;;;;;;;;;5035196;28;20416;-73
2021/11/26 01:33:18;;;;;;;5.55;4.10;;;;;;;;;;5034542;28;20046;-73
2021/11/26 01:35:50;;;;;;;5.10;4.05;;;;;;;;;;5034745;28;20241;-71
2021/11/26 01:38:19;;;;;;;6.88;4.65;;;;;;;;;;5034837;28;20116;-72
2021/11/26 01:40:47;;;;;;;5.80;4.63;;;;;;;;;;5035157;28;20053;-71
2021/11/26 01:43:17;;;;;;;5.75;3.95;;;;;;;;;;5035267;28;20056;-74
2021/11/26 01:45:45;;;;;;;8.07;4.38;;;;;;;;;;5034896;28;20576;-73
2021/11/26 01:48:14;;;;;;;5.88;4.20;;;;;;;;;;5034032;28;20048;-74
2021/11/26 01:50:44;;;;;;;4.75;4.20;;;;;;;;;;5017584;28;20045;-73
2021/11/26 01:53:12;;;;;;;6.43;4.05;;;;;;;;;;5034987;28;20037;-73
2021/11/26 01:55:41;;;;;;;5.25;4.30;;;;;;;;;;5034614;28;20431;-74
2021/11/26 01:58:11;;;;;;;7.35;4.60;;;;;;;;;;5034496;28;20048;-74
2021/11/26 02:00:42;;;;;;;5.22;3.95;;;;;;;;;;5034289;28;20121;-73
2021/11/26 02:03:10;;;;;;;5.72;4.35;;;;;;;;;;5034613;28;20408;-71
2021/11/26 02:05:37;;;;;;;5.78;4.20;;;;;;;;;;5016120;28;20045;-73
2021/11/26 02:08:05;;;;;;;4.90;4.22;;;;;;;;;;5017962;28;20042;-73
2021/11/26 02:10:33;;;;;;;4.78;4.03;;;;;;;;;;5014580;28;20042;-74
2021/11/26 02:13:01;;;;;;;5.90;4.38;;;;;;;;;;4996892;28;20054;-72
2021/11/26 02:15:29;;;;;;;7.72;4.10;;;;;;;;;;5014135;28;20393;-74
2021/11/26 02:17:59;;;;;;;8.68;4.65;;;;;;;;;;5014180;28;20049;-74
2021/11/26 02:20:27;;;;;;;6.82;4.13;;;;;;;;;;5014415;28;20050;-74
2021/11/26 02:22:58;;;;;;;5.03;4.18;;;;;;;;;;5014245;28;20520;-72
2021/11/26 02:25:26;;;;;;;5.30;4.25;;;;;;;;;;4997131;28;20096;-73
2021/11/26 02:27:58;;;;;;;6.32;4.00;;;;;;;;;;5013992;28;20046;-72
2021/11/26 02:30:27;;;;;;;5.43;4.45;;;;;;;;;;5013698;28;20149;-72
2021/11/26 02:32:55;;;;;;;5.32;3.90;;;;;;;;;;4997001;28;20089;-72
2021/11/26 02:35:22;;;;;;;6.57;4.18;;;;;;;;;;5012998;28;20080;-73
2021/11/26 02:37:53;;;;;;;7.22;4.32;;;;;;;;;;5014264;28;20137;-74
2021/11/26 02:40:22;;;;;;;4.85;4.28;;;;;;;;;;5014152;28;20050;-72
2021/11/26 02:42:51;;;;;;;5.72;4.13;;;;;;;;;;5013934;28;20045;-74
2021/11/26 02:45:19;;;;;;;10.60;4.55;;;;;;;;;;4996221;28;20409;-73
2021/11/26 02:47:50;;;;;;;7.38;4.07;;;;;;;;;;5013509;28;20038;-74
2021/11/26 02:50:19;;;;;;;4.40;4.00;;;;;;;;;;5013909;28;20121;-73
2021/11/26 02:52:47;;;;;;;5.35;3.92;;;;;;;;;;5012584;28;20045;-73
2021/11/26 02:55:17;;;;;;;6.80;4.20;;;;;;;;;;5014084;28;20490;-73
2021/11/26 02:57:45;;;;;;;6.22;3.50;;;;;;;;;;5013679;28;20042;-73
2021/11/26 03:00:18;;;;;;;4.93;3.97;;;;;;;;;;4996422;28;20069;-73
2021/11/26 03:02:46;;;;;;;4.30;3.37;;;;;;;;;;5012498;28;20034;-73
2021/11/26 03:05:15;;;;;;;3.47;3.17;;;;;;;;;;5013602;28;20331;-74
2021/11/26 03:07:44;;;;;;;3.88;3.30;;;;;;;;;;5013840;28;20116;-72
2021/11/26 03:10:16;;;;;;;4.32;3.50;;;;;;;;;;5013955;28;20038;-74
2021/11/26 03:12:46;;;;;;;6.43;3.38;;;;;;;;;;5013442;28;20284;-73
2021/11/26 03:15:14;;;;;;;5.32;3.50;;;;;;;;;;5013102;28;20046;-75
2021/11/26 03:17:42;;;;;;;3.95;3.22;;;;;;;;;;5013263;28;20383;-74
2021/11/26 03:20:10;;;;;;;9.52;3.00;;;;;;;;;;4996500;28;20038;-72
2021/11/26 03:22:37;;;;;;;3.75;2.97;;;;;;;;;;5013525;28;20042;-73
2021/11/26 03:25:06;;;;;;;5.53;3.40;;;;;;;;;;5013363;28;20033;-73
2021/11/26 03:27:33;;;;;;;5.82;3.42;;;;;;;;;;5012239;28;20049;-73
2021/11/26 03:30:04;;;;;;;7.28;4.40;;;;;;;;;;5013322;28;20074;-74
2021/11/26 03:32:32;;;;;;;5.07;3.80;;;;;;;;;;5013085;28;20038;-73
2021/11/26 03:35:00;;;;;;;3.90;3.35;;;;;;;;;;5012962;28;20046;-74
2021/11/26 03:37:28;;;;;;;7.10;4.30;;;;;;;;;;5012934;28;20058;-72
2021/11/26 03:39:55;;;;;;;7.72;5.45;;;;;;;;;;5011737;28;20045;-74
2021/11/26 03:42:23;;;;;;;5.28;4.03;;;;;;;;;;4995352;28;20045;-74
2021/11/26 03:44:52;;;;;;;8.15;5.20;;;;;;;;;;5011536;28;20139;-74
2021/11/26 03:47:19;;;;;;;5.15;3.95;;;;;;;;;;5013302;28;20412;-74
2021/11/26 03:49:49;;;;;;;4.40;3.60;;;;;;;;;;5011802;28;20042;-72
2021/11/26 03:52:16;;;;;;;4.05;3.42;;;;;;;;;;5012822;28;20049;-74
2021/11/26 03:54:45;;;;;;;3.35;3.05;;;;;;;;;;5012817;28;20046;-72
2021/11/26 03:57:13;;;;;;;4.47;3.97;;;;;;;;;;4995409;28;20489;-73
2021/11/26 03:59:41;;;;;;;7.40;4.80;;;;;;;;;;5016564;28;20088;-74
2021/11/26 04:02:09;;;;;;;4.03;3.60;;;;;;;;;;5016863;28;20065;-72
2021/11/26 04:04:39;;;;;;;5.72;4.00;;;;;;;;;;5016694;28;20072;-72
2021/11/26 04:07:06;;;;;;;6.03;3.65;;;;;;;;;;5017286;28;20034;-73
2021/11/26 04:09:34;;;;;;;4.03;2.65;;;;;;;;;;5016888;28;20056;-74
2021/11/26 04:12:02;;;;;;;3.80;3.13;;;;;;;;;;5016060;28;20132;-73
2021/11/26 04:14:40;;;;;;;3.10;2.80;;;;;;;;;;5016658;28;20115;-73
2021/11/26 04:17:10;;;;;;;4.68;3.25;;;;;;;;;;5016629;28;20045;-73
2021/11/26 04:19:39;;;;;;;3.85;2.45;;;;;;;;;;5016525;28;20073;-73
2021/11/26 04:22:06;;;;;;;2.22;2.03;;;;;;;;;;5015573;28;20489;-73
2021/11/26 04:24:36;;;;;;;4.18;1.83;;;;;;;;;;5016659;28;20049;-73
2021/11/26 04:27:04;;;;;;;2.17;2.03;;;;;;;;;;5016224;28;20050;-72
2021/11/26 04:29:32;;;;;;;2.83;2.53;;;;;;;;;;5016778;28;20383;-72
2021/11/26 04:32:00;;;;;;;2.05;1.85;;;;;;;;;;4999212;28;20044;-73
2021/11/26 04:34:28;;;;;;;2.95;2.00;;;;;;;;;;5016085;28;20052;-74
2021/11/26 04:36:56;;;;;;;3.55;2.35;;;;;;;;;;5015527;28;20137;-73
2021/11/26 04:39:23;;;;;;;2.45;2.13;;;;;;;;;;5016439;28;20405;-74
2021/11/26 04:41:51;;;;;;;2.65;2.30;;;;;;;;;;5015811;28;20458;-73
2021/11/26 04:44:18;;;;;;;6.93;2.10;;;;;;;;;;5016267;28;20511;-72
2021/11/26 04:46:47;;;;;;;2.25;2.00;;;;;;;;;;5016533;28;20140;-72
2021/11/26 04:49:15;;;;;;;2.30;2.10;;;;;;;;;;5016288;28;20416;-73
2021/11/26 04:51:43;;;;;;;3.85;2.70;;;;;;;;;;5016201;28;20042;-73
2021/11/26 04:54:11;;;;;;;4.95;3.00;;;;;;;;;;5016028;28;20046;-73
2021/11/26 04:56:38;;;;;;;3.95;2.85;;;;;;;;;;5014194;28;20048;-74
2021/11/26 04:59:06;;;;;;;4.22;3.58;;;;;;;;;;4998768;28;20038;-74
2021/11/26 05:01:35;;;;;;;6.25;3.33;;;;;;;;;;5016246;28;20056;-72
2021/11/26 05:04:02;;;;;;;5.32;3.60;;;;;;;;;;5015585;28;20065;-72
2021/11/26 05:06:33;;;;;;;5.97;3.70;;;;;;;;;;5016036;28;20064;-73
2021/11/26 05:09:05;;;;;;;6.28;4.05;;;;;;;;;;5015238;28;20045;-72
2021/11/26 05:11:33;;;;;;;5.10;3.60;;;;;;;;;;5015385;28;20136;-74
2021/11/26 05:14:04;;;;;;;3.85;3.45;;;;;;;;;;4998220;28;20042;-73
2021/11/26 05:16:36;;;;;;;6.72;3.92;;;;;;;;;;5015510;28;20048;-73
2021/11/26 05:19:04;;;;;;;4.70;2.90;;;;;;;;;;5015840;28;20080;-73
2021/11/26 05:21:33;;;;;;;3.72;3.03;;;;;;;;;;5016015;28;20056;-74
2021/11/26 05:24:00;;;;;;;6.38;4.95;;;;;;;;;;5014903;28;20042;-73
2021/11/26 05:26:29;;;;;;;4.50;3.50;;;;;;;;;;5015712;28;20049;-73
2021/11/26 05:28:56;;;;;;;3.83;2.30;;;;;;;;;;5015969;28;20342;-73
2021/11/26 05:31:24;;;;;;;2.20;1.98;;;;;;;;;;5015203;28;20037;-74
2021/11/26 05:33:53;;;;;;;3.70;2.00;;;;;;;;;;4997581;28;20041;-74
2021/11/26 05:36:21;;;;;;;3.00;1.98;;;;;;;;;;5015320;28;20056;-73
2021/11/26 05:38:48;;;;;;;2.22;2.03;;;;;;;;;;5014296;28;20034;-73
2021/11/26 05:41:16;;;;;;;2.88;2.13;;;;;;;;;;5015401;28;20042;-73
2021/11/26 05:43:44;;;;;;;2.97;2.05;;;;;;;;;;5014968;28;20041;-73
2021/11/26 05:46:11;;;;;;;4.43;1.92;;;;;;;;;;4997687;28;20042;-73
2021/11/26 05:48:39;;;;;;;2.15;1.77;;;;;;;;;;5015499;28;20117;-71
2021/11/26 05:51:08;;;;;;;2.40;1.98;;;;;;;;;;5014977;28;20042;-74
2021/11/26 05:53:41;;;;;;;1.88;1.58;;;;;;;;;;4996833;28;20379;-73
2021/11/26 05:56:09;;;;;;;2.10;1.90;;;;;;;;;;5014942;28;20048;-73
2021/11/26 05:58:37;;;;;;;2.58;2.33;;;;;;;;;;5014404;28;20116;-75
2021/11/26 06:01:05;;;;;;;2.55;2.00;;;;;;;;;;5014895;28;20074;-78
2021/11/26 06:03:33;;;;;;;2.63;2.42;;;;;;;;;;5015111;28;20396;-73
2021/11/26 06:06:01;;;;;;;2.20;1.35;;;;;;;;;;4997171;28;20056;-70
2021/11/26 06:08:28;;;;;;;2.22;1.40;;;;;;;;;;5014410;28;20048;-72
2021/11/26 06:10:56;;;;;;;4.05;1.70;;;;;;;;;;4996804;28;20084;-69
2021/11/26 06:13:24;;;;;;;2.90;1.50;;;;;;;;;;5014005;28;20050;-73
2021/11/26 06:15:51;;;;;;;1.85;1.60;;;;;;;;;;5014916;28;20412;-70
2021/11/26 06:18:19;;;;;;;3.72;2.03;;;;;;;;;;5014522;28;20394;-70
2021/11/26 06:20:46;;;;;;;2.58;1.50;;;;;;;;;;5013575;28;20042;-73
2021/11/26 06:23:15;;;;;;;4.18;1.80;;;;;;;;;;5013922;28;20121;-74
2021/11/26 06:25:43;;;;;;;4.07;1.55;;;;;;;;;;5014825;28;20382;-70
2021/11/26 06:28:10;;;;;;;1.83;1.40;;;;;;;;;;5013626;28;20038;-72
2021/11/26 06:30:38;;;;;;;2.53;1.45;;;;;;;;;;5013015;28;20050;-72
2021/11/26 06:33:05;;;;;;;2.05;1.75;;;;;;;;;;4994763;28;20046;-73
2021/11/26 06:35:33;;;;;;;2.53;1.55;;;;;;;;;;5019672;28;20076;-73
2021/11/26 06:38:01;;;;;;;3.55;1.33;;;;;;;;;;5033503;28;20410;-74
2021/11/26 06:40:28;;;;;;;3.00;1.50;;;;;;;;;;5033430;28;20038;-73
2021/11/26 06:42:56;;;;;;;1.88;1.77;;;;;;;;;;5033328;28;20034;-71
2021/11/26 06:45:24;;;;;;;3.78;2.13;;;;;;;;;;5033682;28;20047;-70
2021/11/26 06:47:51;;;;;;;4.95;2.30;;;;;;;;;;5033625;28;20033;-72
2021/11/26 06:50:19;;;;;;;3.15;2.42;;;;;;;;;;5033254;28;20404;-71
2021/11/26 06:52:48;;;;;;;3.22;2.17;;;;;;;;;;5032423;28;20124;-73
2021/11/26 06:55:16;;;;;;;3.63;1.75;;;;;;;;;;5033248;28;20413;-73
2021/11/26 06:57:43;;;;;;;3.75;1.92;;;;;;;;;;5032914;28;20052;-74
2021/11/26 07:00:15;;;;;;;3.47;1.80;;;;;;;;;;5015343;28;20044;-74
2021/11/26 07:02:43;;;;;;;5.85;2.50;;;;;;;;;;5032650;28;20137;-75
2021/11/26 07:05:11;;;;;;;3.70;1.90;;;;;;;;;;5032562;28;20041;-72
2021/11/26 07:07:39;;;;;;;1.98;1.88;;;;;;;;;;5032973;28;20499;-73
2021/11/26 07:10:07;;;;;;;3.20;2.33;;;;;;;;;;5032785;28;20124;-74
2021/11/26 07:12:35;;;;;;;4.60;2.33;;;;;;;;;;5015054;28;20050;-72
2021/11/26 07:15:04;;;;;;;6.47;2.25;;;;;;;;;;5033152;28;20053;-71
2021/11/26 07:17:32;;;;;;;4.35;2.15;;;;;;;;;;5032346;28;20045;-74
2021/11/26 07:20:00;;;;;;;5.47;2.40;;;;;;;;;;5032456;28;20037;-71
2021/11/26 07:22:27;;;;;;;4.78;2.13;;;;;;;;;;5032513;28;20048;-72
2021/11/26 07:24:55;;;;;;;7.55;2.10;;;;;;;;;;5032544;28;20080;-74
2021/11/26 07:27:22;;;;;;;4.63;1.95;;;;;;;;;;5032542;28;20044;-73
2021/11/26 07:29:51;;;;;;;3.53;2.03;;;;;;;;;;5032654;28;20409;-74
2021/11/26 07:32:19;;;;;;;3.60;1.80;;;;;;;;;;5032462;28;20144;-73
2021/11/26 07:34:48;;;;;;;6.82;2.00;;;;;;;;;;5014820;28;20056;-73
2021/11/26 07:37:17;;;;;;;3.78;1.90;;;;;;;;;;5015392;28;20056;-73
2021/11/26 07:39:46;;;;;;;2.53;1.80;;;;;;;;;;5032030;28;20408;-72
2021/11/26 07:42:13;;;;;;;4.18;1.70;;;;;;;;;;5032452;28;20091;-73
2021/11/26 07:44:42;;;;;;;3.33;1.40;;;;;;;;;;5032620;28;20048;-74
2021/11/26 07:47:11;;;;;;;4.07;1.45;;;;;;;;;;5032057;28;20044;-70
2021/11/26 07:49:40;;;;;;;1.42;1.13;;;;;;;;;;5032049;28;20099;-74
2021/11/26 07:52:10;;;;;;;4.00;1.55;;;;;;;;;;5032422;28;20053;-74
2021/11/26 07:54:37;;;;;;;1.65;1.17;;;;;;;;;;5032592;28;20051;-70
2021/11/26 07:57:05;;;;;;;1.48;1.38;;;;;;;;;;5014859;28;20403;-71
2021/11/26 07:59:32;;;;;;;3.17;1.58;;;;;;;;;;5032397;28;20416;-73
2021/11/26 08:02:00;;;;;;;5.35;1.75;;;;;;;;;;5032401;28;20368;-72
2021/11/26 08:04:28;;;;;;;2.75;1.83;;;;;;;;;;5032264;28;20046;-73
2021/11/26 08:06:57;;;;;;;4.47;2.00;;;;;;;;;;5032547;28;20485;-70
2021/11/26 08:09:25;;;;;;;3.83;2.42;;;;;;;;;;5032290;28;20052;-74
2021/11/26 08:11:53;;;;;;;3.97;2.38;;;;;;;;;;5033218;22;20536;-75
2021/11/26 08:14:22;;;;;;;3.40;2.03;;;;;;;;;;4996451;28;20510;-74
2021/11/26 08:16:50;;;;;;;2.95;1.92;;;;;;;;;;4995662;28;20136;-77
2021/11/26 08:19:18;;;;;;;2.63;2.20;;;;;;;;;;4997450;28;20049;-75
2021/11/26 08:21:46;;;;;;;3.65;1.90;;;;;;;;;;5012284;28;20486;-79
2021/11/26 08:24:14;;;;;;;5.80;2.45;;;;;;;;;;4999619;28;20053;-78
2021/11/26 08:26:42;;;;;;;3.97;1.92;;;;;;;;;;5013468;28;20083;-74
2021/11/26 08:29:12;;;;;;;6.65;2.40;;;;;;;;;;5012300;28;20516;-75
2021/11/26 08:31:40;;;;;;;5.93;2.25;;;;;;;;;;4994810;28;20104;-73
2021/11/26 08:34:08;;;;;;;3.05;2.00;;;;;;;;;;5012072;28;20046;-71
2021/11/26 08:36:36;;;;;;;4.88;1.90;;;;;;;;;;4997937;28;20049;-74
2021/11/26 08:39:04;;;;;;;4.22;1.77;;;;;;;;;;5012178;28;20052;-71
2021/11/26 08:41:32;;;;;;;2.05;1.60;;;;;;;;;;5014510;28;20038;-78
2021/11/26 08:44:00;;;;;;;3.20;1.80;;;;;;;;;;5013645;28;20052;-78
2021/11/26 08:46:29;;;;;;;2.85;1.65;;;;;;;;;;5004055;28;20042;-71
2021/11/26 08:48:57;;;;;;;2.50;1.63;;;;;;;;;;5015348;28;20048;-71
2021/11/26 08:51:27;;;;;;;1.95;1.70;;;;;;;;;;5000692;28;20046;-78
2021/11/26 08:53:56;;;;;;;3.22;2.45;;;;;;;;;;5016257;28;20099;-74
2021/11/26 08:56:25;;;;;;;5.18;2.17;;;;;;;;;;5001196;28;20517;-72
2021/11/26 08:58:53;;;;;;;4.97;2.13;;;;;;;;;;4997823;28;20041;-71
2021/11/26 09:01:23;;;;;;;3.03;1.98;;;;;;;;;;4999961;28;20145;-76
2021/11/26 09:03:51;;;;;;;3.28;2.00;;;;;;;;;;5018020;28;20498;-78
2021/11/26 09:06:20;;;;;;;4.53;1.88;;;;;;;;;;5018031;28;20045;-71
2021/11/26 09:08:47;;;;;;;4.70;1.40;;;;;;;;;;5023356;28;20038;-72
2021/11/26 09:11:16;;;;;;;3.75;2.08;;;;;;;;;;4981432;28;20058;-72
2021/11/26 09:13:44;;;;;;;2.13;1.58;;;;;;;;;;5015442;28;20408;-74
2021/11/26 09:16:11;;;;;;;2.92;1.60;;;;;;;;;;4997186;28;20053;-75
2021/11/26 09:18:39;;;;;;;4.30;1.45;;;;;;;;;;5018766;28;20073;-78
2021/11/26 09:21:09;;;;;;;7.53;3.67;;;;;;;;;;5025824;28;20405;-78
2021/11/26 09:23:37;;;;;;;4.63;1.60;;;;;;;;;;5020128;28;20062;-78
2021/11/26 09:26:05;;;;;;;2.40;1.30;;;;;;;;;;5018262;28;20041;-74
2021/11/26 09:28:33;;;;;;;7.38;1.60;;;;;;;;;;5001082;28;20559;-74
2021/11/26 09:31:01;;;;;;;2.88;1.80;;;;;;;;;;4981028;28;20046;-76
2021/11/26 09:33:35;;;;;;;3.10;1.70;;;;;;;;;;5017654;28;20053;-78
2021/11/26 09:36:04;;;;;;;2.78;1.70;;;;;;;;;;4984598;28;20141;-71
2021/11/26 09:38:33;;;;;;;6.05;2.05;;;;;;;;;;4999442;28;20072;-78
2021/11/26 09:41:01;;;;;;;2.78;1.80;;;;;;;;;;4997654;28;20413;-74
2021/11/26 09:43:36;;;;;;;3.28;1.88;;;;;;;;;;4997243;28;20049;-71
2021/11/26 09:46:05;;;;;;;5.22;1.70;;;;;;;;;;5022276;28;20128;-76
2021/11/26 09:48:34;;;;;;;3.20;1.90;;;;;;;;;;5014483;28;20096;-75
2021/11/26 09:51:03;;;;;;;6.00;2.10;;;;;;;;;;4997459;28;20432;-71
2021/11/26 09:53:31;;;;;;;6.07;2.35;;;;;;;;;;5014411;28;20124;-71
2021/11/26 09:56:00;;;;;;;4.65;2.17;;;;;;;;;;5015649;28;20042;-78
2021/11/26 09:58:29;;;;;;;6.30;3.55;;;;;;;;;;4999969;28;20052;-73
2021/11/26 10:00:58;;;;;;;2.53;1.75;;;;;;;;;;4996657;28;20046;-74
2021/11/26 10:03:55;;;;;;;4.28;2.10;;;;;;;;;;5017829;28;20041;-78
2021/11/26 10:06:41;;;;;;;3.67;1.60;;;;;;;;;;4997090;28;20064;-78
2021/11/26 10:09:19;;;;;;;3.75;1.85;;;;;;;;;;5014237;28;20070;-76
2021/11/26 10:11:51;;;;;;;3.75;1.95;;;;;;;;;;5016688;28;20141;-78
2021/11/26 10:14:23;;;;;;;2.35;1.80;;;;;;;;;;4997187;28;20076;-76
2021/11/26 10:16:57;;;;;;;8.07;1.60;;;;;;;;;;4996602;28;20061;-76
2021/11/26 10:19:30;;;;;;;3.13;1.30;;;;;;;;;;5014281;28;20045;-71
2021/11/26 10:21:58;;;;;;;3.33;1.42;;;;;;;;;;5016130;28;20038;-74
2021/11/26 10:24:26;;;;;;;1.92;1.60;;;;;;;;;;4982445;28;20132;-75
2021/11/26 10:26:55;;;;;;;3.05;1.52;;;;;;;;;;5013954;28;20046;-76
2021/11/26 10:29:34;;;;;;;2.92;1.50;;;;;;;;;;4995859;28;20255;-74
2021/11/26 10:32:07;;;;;;;3.35;1.80;;;;;;;;;;4999545;28;20052;-76
2021/11/26 10:34:35;;;;;;;4.93;1.67;;;;;;;;;;5018923;28;20053;-78
2021/11/26 10:37:03;;;;;;;1.63;1.45;;;;;;;;;;4995768;28;20046;-74
2021/11/26 10:39:34;;;;;;;5.97;1.40;;;;;;;;;;5013701;28;20048;-75
2021/11/26 10:42:02;;;;;;;5.55;1.50;;;;;;;;;;5016788;28;20049;-72
2021/11/26 10:44:51;;;;;;;3.50;1.60;;;;;;;;;;5015325;28;20070;-79
2021/11/26 10:47:35;;;;;;;6.18;1.70;;;;;;;;;;4999597;28;20049;-71
2021/11/26 10:50:34;;;;;;;4.00;1.70;;;;;;;;;;4995830;28;20418;-76
2021/11/26 10:58:50;;;;;;;5.07;1.67;;;;;;;;;;5014177;28;20440;-74
2021/11/26 11:01:20;;;;;;;3.08;1.58;;;;;;;;;;4995770;28;20033;-74
2021/11/26 11:03:51;;;;;;;4.30;1.80;;;;;;;;;;4996878;28;20092;-76
2021/11/26 11:06:19;;;;;;;6.20;1.58;;;;;;;;;;4995656;28;20046;-72
2021/11/26 11:08:58;;;;;;;4.03;1.65;;;;;;;;;;4998408;28;20113;-74
2021/11/26 11:11:26;;;;;;;2.30;1.35;;;;;;;;;;5014692;28;20060;-79
2021/11/26 11:13:54;;;;;;;3.67;1.60;;;;;;;;;;5012927;28;20387;-72
2021/11/26 11:16:22;;;;;;;8.65;2.00;;;;;;;;;;5014164;28;20100;-75
2021/11/26 11:18:49;;;;;;;2.83;1.75;;;;;;;;;;5012761;28;20056;-75
2021/11/26 11:21:17;;;;;;;3.17;1.48;;;;;;;;;;5016334;28;20052;-78
2021/11/26 11:23:44;;;;;;;6.35;3.25;;;;;;;;;;4996043;28;20049;-71
2021/11/26 11:26:12;;;;;;;3.75;1.85;;;;;;;;;;5013761;28;20048;-78
2021/11/26 11:28:39;;;;;;;9.88;2.40;;;;;;;;;;5017227;28;20478;-77
2021/11/26 11:31:07;;;;;;;2.90;1.63;;;;;;;;;;4995295;28;20050;-75
2021/11/26 11:33:35;;;;;;;5.45;2.80;;;;;;;;;;4995064;28;20050;-73
2021/11/26 11:36:04;;;;;;;3.35;1.20;;;;;;;;;;4978781;28;20390;-75
2021/11/26 11:38:31;;;;;;;5.25;1.30;;;;;;;;;;4998355;28;20077;-71
2021/11/26 11:41:01;;;;;;;3.70;2.10;;;;;;;;;;5013978;28;20038;-78
2021/11/26 11:43:28;;;;;;;3.13;1.58;;;;;;;;;;5015838;28;20048;-73
2021/11/26 11:45:56;;;;;;;2.20;1.40;;;;;;;;;;4979807;28;20133;-80
2021/11/26 11:48:28;;;;;;;7.35;6.10;;;;;;;;;;5020193;28;20069;-75
2021/11/26 11:50:55;;;;;;;4.22;1.70;;;;;;;;;;5017069;28;20108;-70
2021/11/26 11:53:30;;;;;;;3.60;1.40;;;;;;;;;;4995045;28;20046;-77
2021/11/26 11:56:07;;;;;;;2.40;1.58;;;;;;;;;;4995035;28;20042;-73
2021/11/26 11:58:51;;;;;;;2.45;1.38;;;;;;;;;;4998430;28;20126;-80
2021/11/26 12:01:26;;;;;;;4.95;1.38;;;;;;;;;;5000879;28;20052;-78
2021/11/26 12:03:55;;;;;;;2.83;1.38;;;;;;;;;;5012982;28;20052;-70
2021/11/26 12:06:24;;;;;;;3.42;1.30;;;;;;;;;;4998146;28;20038;-80
2021/11/26 12:08:56;;;;;;;2.05;1.40;;;;;;;;;;5013301;28;20045;-72
2021/11/26 12:11:24;;;;;;;3.35;1.75;;;;;;;;;;4997786;28;20054;-74
2021/11/26 12:14:06;;;;;;;3.10;1.70;;;;;;;;;;5012094;28;20050;-72
2021/11/26 12:16:48;;;;;;;2.08;1.63;;;;;;;;;;5012145;28;20133;-75
2021/11/26 12:19:18;;;;;;;2.60;1.65;;;;;;;;;;5015416;28;20046;-72
2021/11/26 12:21:47;;;;;;;1.83;1.20;;;;;;;;;;5002501;28;20057;-78
2021/11/26 12:24:16;;;;;;;3.83;1.80;;;;;;;;;;5019218;28;20463;-74
2021/11/26 12:26:56;;;;;;;3.30;1.50;;;;;;;;;;5002302;28;20134;-74
2021/11/26 12:29:45;;;;;;;2.20;1.42;;;;;;;;;;5000390;28;20046;-77
2021/11/26 12:32:17;;;;;;;2.70;1.75;;;;;;;;;;5015586;28;20053;-71
2021/11/26 12:34:49;;;;;;;4.30;1.70;;;;;;;;;;4998842;28;20104;-74
2021/11/26 12:37:19;;;;;;;3.83;1.70;;;;;;;;;;5015928;28;20141;-75
2021/11/26 12:39:47;;;;;;;2.72;1.70;;;;;;;;;;4998339;28;20128;-72
2021/11/26 12:42:17;;;;;;;2.83;1.30;;;;;;;;;;4998569;28;20045;-75
2021/11/26 12:44:56;;;;;;;3.35;1.60;;;;;;;;;;5016237;28;20037;-75
2021/11/26 12:47:33;;;;;;;3.22;1.23;;;;;;;;;;5001699;28;20084;-71
2021/11/26 12:53:06;;;;;;;3.13;1.23;;;;;;;;;;5015830;28;20120;-71
2021/11/26 12:55:36;;;;;;;3.42;1.60;;;;;;;;;;5022990;28;20066;-79
2021/11/26 12:58:04;;;;;;;4.53;1.58;;;;;;;;;;4998137;28;20482;-72
2021/11/26 13:00:32;;;;;;;4.55;1.60;;;;;;;;;;5018956;28;20129;-71
2021/11/26 13:03:07;;;;;;;5.65;1.65;;;;;;;;;;4999211;28;20034;-75
2021/11/26 13:05:35;;;;;;;4.30;1.80;;;;;;;;;;5010056;28;20097;-79
2021/11/26 13:08:02;;;;;;;4.38;1.60;;;;;;;;;;4988229;28;20038;-73
2021/11/26 13:10:30;;;;;;;2.50;1.42;;;;;;;;;;5004743;28;20066;-78
2021/11/26 13:12:59;;;;;;;4.97;1.55;;;;;;;;;;4986742;28;20136;-74
2021/11/26 13:15:52;;;;;;;3.72;1.40;;;;;;;;;;4990292;28;20042;-78
2021/11/26 13:18:21;;;;;;;4.22;1.80;;;;;;;;;;5003669;28;20050;-71
2021/11/26 13:20:51;;;;;;;5.38;1.67;;;;;;;;;;4995203;28;20050;-71
2021/11/26 13:23:19;;;;;;;3.00;1.60;;;;;;;;;;4977671;28;20130;-76
2021/11/26 13:25:57;;;;;;;2.42;1.38;;;;;;;;;;4999632;28;20046;-71
2021/11/26 13:28:35;;;;;;;3.75;1.50;;;;;;;;;;4995525;28;20658;-75
2021/11/26 13:31:35;;;;;;;1.92;1.40;;;;;;;;;;4983134;28;20042;-80
2021/11/26 13:34:03;;;;;;;4.18;1.13;;;;;;;;;;4995440;28;20046;-72
2021/11/26 13:36:31;;;;;;;3.88;1.40;;;;;;;;;;4995030;28;20042;-72
2021/11/26 13:39:06;;;;;;;3.40;1.23;;;;;;;;;;4994956;28;20121;-71
2021/11/26 13:41:34;;;;;;;4.35;1.60;;;;;;;;;;5000864;28;20038;-73
2021/11/26 13:44:03;;;;;;;2.00;1.42;;;;;;;;;;4995474;28;20083;-72
2021/11/26 13:46:32;;;;;;;6.30;2.30;;;;;;;;;;4997560;28;20127;-78
2021/11/26 13:49:01;;;;;;;2.97;1.58;;;;;;;;;;4999401;28;20042;-75
2021/11/26 13:51:29;;;;;;;3.28;1.50;;;;;;;;;;4977019;28;20058;-72
2021/11/26 13:54:02;;;;;;;8.40;1.20;;;;;;;;;;5000326;28;20092;-72
2021/11/26 13:56:32;;;;;;;1.65;1.10;;;;;;;;;;4977287;28;20054;-72
2021/11/26 13:59:01;;;;;;;1.42;1.00;;;;;;;;;;4981743;28;20101;-74
2021/11/26 14:01:30;;;;;;;4.70;1.55;;;;;;;;;;4997029;28;20486;-74
2021/11/26 14:04:03;;;;;;;2.17;1.10;;;;;;;;;;4998917;28;20053;-78
2021/11/26 14:06:55;;;;;;;5.15;1.58;;;;;;;;;;4977563;28;20042;-74
2021/11/26 14:09:23;;;;;;;2.83;1.33;;;;;;;;;;5000405;28;20469;-78
2021/11/26 14:11:51;;;;;;;3.05;1.30;;;;;;;;;;5007808;28;20054;-72
2021/11/26 14:14:25;;;;;;;2.70;1.05;;;;;;;;;;5005286;28;20038;-74
2021/11/26 14:17:03;;;;;;;1.85;1.50;;;;;;;;;;5006462;28;20053;-78
2021/11/26 14:19:39;;;;;;;3.88;1.45;;;;;;;;;;4988823;28;20133;-74
2021/11/26 14:22:19;;;;;;;2.40;1.20;;;;;;;;;;5008014;28;20046;-77
2021/11/26 14:24:52;;;;;;;1.58;1.30;;;;;;;;;;4999373;28;20049;-78
2021/11/26 14:27:29;;;;;;;3.60;1.35;;;;;;;;;;4986473;28;20517;-78
2021/11/26 14:29:59;;;;;;;4.07;1.25;;;;;;;;;;5002165;28;20458;-74
2021/11/26 14:32:27;;;;;;;2.15;1.13;;;;;;;;;;5001418;28;20465;-72
2021/11/26 14:35:04;;;;;;;8.90;1.52;;;;;;;;;;4985466;28;20382;-76
2021/11/26 14:37:33;;;;;;;1.70;1.30;;;;;;;;;;4990716;28;20142;-76
2021/11/26 14:40:01;;;;;;;4.55;1.73;;;;;;;;;;5007809;28;20120;-76
2021/11/26 14:42:31;;;;;;;4.15;1.27;;;;;;;;;;4999758;28;20042;-74
2021/11/26 14:44:59;;;;;;;2.85;1.40;;;;;;;;;;5010943;28;20044;-74
2021/11/26 14:47:38;;;;;;;3.83;1.23;;;;;;;;;;5013160;28;20044;-75
2021/11/26 14:50:19;;;;;;;1.55;1.15;;;;;;;;;;5012727;28;20057;-75
2021/11/26 14:52:47;;;;;;;1.60;1.40;;;;;;;;;;4996950;28;20121;-74
2021/11/26 14:55:14;;;;;;;3.15;1.35;;;;;;;;;;4998927;28;20076;-75
2021/11/26 14:57:42;;;;;;;4.80;1.67;;;;;;;;;;5016091;28;20044;-75
2021/11/26 15:00:10;;;;;;;1.90;1.30;;;;;;;;;;5014549;28;20053;-75
2021/11/26 15:02:38;;;;;;;5.28;1.30;;;;;;;;;;5013903;28;20050;-74
2021/11/26 15:05:07;;;;;;;5.07;1.40;;;;;;;;;;5001470;28;20042;-78
2021/11/26 15:07:34;;;;;;;2.50;1.15;;;;;;;;;;5002360;28;20034;-76